sensor_id;sensor_type;location;lat;lon;timestamp;P1;durP1;ratioP1;P2;durP2;ratioP2
67665;SDS011;54448;51.472;-2.574;2023-09-19T00:00:00;27.50;;;4.10;;
67665;SDS011;54448;51.472;-2.574;2023-09-19T00:02:26;35.67;;;3.58;;
67665;SDS011;54448;51.472;-2.574;2023-09-19T00:04:52;24.55;;;3.20;;
67665;SDS011;54448;51.472;-2.574;2023-09-19T00:07:18;29.73;;;3.20;;
67665;SDS011;54448;51.472;-2.574;2023-09-19T00:09:44;27.45;;;4.07;;
67665;SDS011;54448;51.472;-2.574;2023-09-19T00:12:09;25.08;;;4.00;;
67665;SDS011;54448;51.472;-2.574;2023-09-19T00:14:35;30.83;;;3.05;;
67665;SDS011;54448;51.472;-2.574;2023-09-19T00:17:04;28.98;;;3.47;;
67665;SDS011;54448;51.472;-2.574;2023-09-19T00:19:36;33.03;;;3.70;;
67665;SDS011;54448;51.472;-2.574;2023-09-19T00:22:03;35.33;;;3.35;;
67665;SDS011;54448;51.472;-2.574;2023-09-19T00:24:29;25.13;;;3.10;;
67665;SDS011;54448;51.472;-2.574;2023-09-19T00:26:56;27.45;;;2.92;;
67665;SDS011;54448;51.472;-2.574;2023-09-19T00:29:21;24.83;;;3.42;;
67665;SDS011;54448;51.472;-2.574;2023-09-19T00:31:48;41.70;;;3.42;;
67665;SDS011;54448;51.472;-2.574;2023-09-19T00:34:14;14.75;;;2.83;;
67665;SDS011;54448;51.472;-2.574;2023-09-19T00:36:39;25.27;;;3.17;;
67665;SDS011;54448;51.472;-2.574;2023-09-19T00:39:05;28.05;;;4.22;;
67665;SDS011;54448;51.472;-2.574;2023-09-19T00:41:31;25.83;;;3.92;;
67665;SDS011;54448;51.472;-2.574;2023-09-19T00:43:57;22.23;;;2.70;;
67665;SDS011;54448;51.472;-2.574;2023-09-19T00:46:25;36.15;;;3.40;;
67665;SDS011;54448;51.472;-2.574;2023-09-19T00:48:50;26.80;;;2.92;;
67665;SDS011;54448;51.472;-2.574;2023-09-19T00:51:16;29.42;;;3.15;;
67665;SDS011;54448;51.472;-2.574;2023-09-19T00:53:46;22.80;;;2.92;;
67665;SDS011;54448;51.472;-2.574;2023-09-19T00:56:12;26.85;;;2.80;;
67665;SDS011;54448;51.472;-2.574;2023-09-19T00:58:38;35.60;;;4.22;;
67665;SDS011;54448;51.472;-2.574;2023-09-19T01:01:03;26.77;;;3.15;;
67665;SDS011;54448;51.472;-2.574;2023-09-19T01:03:32;32.95;;;4.20;;
67665;SDS011;54448;51.472;-2.574;2023-09-19T01:06:01;31.30;;;3.13;;
67665;SDS011;54448;51.472;-2.574;2023-09-19T01:08:27;29.15;;;2.72;;
67665;SDS011;54448;51.472;-2.574;2023-09-19T01:11:08;31.00;;;3.13;;
67665;SDS011;54448;51.472;-2.574;2023-09-19T01:14:40;22.17;;;2.67;;
67665;SDS011;54448;51.472;-2.574;2023-09-19T01:17:12;37.45;;;3.30;;
67665;SDS011;54448;51.472;-2.574;2023-09-19T01:20:32;26.92;;;3.47;;
67665;SDS011;54448;51.472;-2.574;2023-09-19T01:25:19;20.17;;;3.75;;
67665;SDS011;54448;51.472;-2.574;2023-09-19T01:30:47;24.58;;;2.85;;
67665;SDS011;54448;51.472;-2.574;2023-09-19T01:33:16;19.50;;;2.60;;
67665;SDS011;54448;51.472;-2.574;2023-09-19T01:35:42;21.95;;;2.67;;
67665;SDS011;54448;51.472;-2.574;2023-09-19T01:38:07;16.77;;;2.63;;
67665;SDS011;54448;51.472;-2.574;2023-09-19T01:40:41;27.20;;;3.17;;
67665;SDS011;54448;51.472;-2.574;2023-09-19T01:43:12;31.67;;;3.25;;
67665;SDS011;54448;51.472;-2.574;2023-09-19T01:46:09;28.42;;;3.38;;
67665;SDS011;54448;51.472;-2.574;2023-09-19T01:48:40;27.70;;;3.00;;
67665;SDS011;54448;51.472;-2.574;2023-09-19T01:51:10;32.35;;;3.85;;
67665;SDS011;54448;51.472;-2.574;2023-09-19T01:53:41;26.08;;;2.85;;
67665;SDS011;54448;51.472;-2.574;2023-09-19T01:56:21;22.67;;;3.10;;
67665;SDS011;54448;51.472;-2.574;2023-09-19T01:58:51;19.58;;;2.10;;
67665;SDS011;54448;51.472;-2.574;2023-09-19T02:01:20;22.48;;;2.55;;
67665;SDS011;54448;51.472;-2.574;2023-09-19T02:03:48;22.05;;;2.35;;
67665;SDS011;54448;51.472;-2.574;2023-09-19T02:06:14;27.83;;;2.90;;
67665;SDS011;54448;51.472;-2.574;2023-09-19T02:08:40;26.52;;;3.15;;
67665;SDS011;54448;51.472;-2.574;2023-09-19T02:11:06;20.30;;;3.22;;
67665;SDS011;54448;51.472;-2.574;2023-09-19T02:13:31;23.27;;;3.00;;
67665;SDS011;54448;51.472;-2.574;2023-09-19T02:15:57;32.13;;;3.00;;
67665;SDS011;54448;51.472;-2.574;2023-09-19T02:18:22;24.88;;;2.63;;
67665;SDS011;54448;51.472;-2.574;2023-09-19T02:20:48;30.98;;;2.97;;
67665;SDS011;54448;51.472;-2.574;2023-09-19T02:23:13;32.65;;;3.50;;
67665;SDS011;54448;51.472;-2.574;2023-09-19T02:25:40;33.70;;;2.85;;
67665;SDS011;54448;51.472;-2.574;2023-09-19T02:28:06;22.23;;;3.30;;
67665;SDS011;54448;51.472;-2.574;2023-09-19T02:30:32;31.50;;;3.13;;
67665;SDS011;54448;51.472;-2.574;2023-09-19T02:32:58;24.65;;;2.47;;
67665;SDS011;54448;51.472;-2.574;2023-09-19T02:35:26;33.15;;;3.63;;
67665;SDS011;54448;51.472;-2.574;2023-09-19T02:37:53;33.78;;;4.35;;
67665;SDS011;54448;51.472;-2.574;2023-09-19T02:40:18;21.30;;;2.53;;
67665;SDS011;54448;51.472;-2.574;2023-09-19T02:42:47;17.25;;;1.75;;
67665;SDS011;54448;51.472;-2.574;2023-09-19T02:45:17;27.20;;;2.75;;
67665;SDS011;54448;51.472;-2.574;2023-09-19T02:47:43;24.88;;;2.70;;
67665;SDS011;54448;51.472;-2.574;2023-09-19T02:50:09;26.02;;;4.30;;
67665;SDS011;54448;51.472;-2.574;2023-09-19T02:52:36;21.35;;;2.35;;
67665;SDS011;54448;51.472;-2.574;2023-09-19T02:55:01;20.15;;;2.25;;
67665;SDS011;54448;51.472;-2.574;2023-09-19T02:57:29;24.90;;;2.83;;
67665;SDS011;54448;51.472;-2.574;2023-09-19T02:59:56;19.25;;;2.63;;
67665;SDS011;54448;51.472;-2.574;2023-09-19T03:02:21;33.35;;;2.95;;
67665;SDS011;54448;51.472;-2.574;2023-09-19T03:04:49;20.98;;;2.28;;
67665;SDS011;54448;51.472;-2.574;2023-09-19T03:07:16;19.60;;;2.15;;
67665;SDS011;54448;51.472;-2.574;2023-09-19T03:09:42;30.25;;;2.10;;
67665;SDS011;54448;51.472;-2.574;2023-09-19T03:12:11;30.65;;;2.90;;
67665;SDS011;54448;51.472;-2.574;2023-09-19T03:14:36;27.75;;;2.63;;
67665;SDS011;54448;51.472;-2.574;2023-09-19T03:17:02;21.38;;;2.10;;
67665;SDS011;54448;51.472;-2.574;2023-09-19T03:19:30;16.92;;;2.13;;
67665;SDS011;54448;51.472;-2.574;2023-09-19T03:21:58;22.08;;;2.53;;
67665;SDS011;54448;51.472;-2.574;2023-09-19T03:24:24;26.65;;;2.50;;
67665;SDS011;54448;51.472;-2.574;2023-09-19T03:26:49;15.82;;;1.77;;
67665;SDS011;54448;51.472;-2.574;2023-09-19T03:29:15;34.47;;;2.85;;
67665;SDS011;54448;51.472;-2.574;2023-09-19T03:31:42;26.17;;;2.50;;
67665;SDS011;54448;51.472;-2.574;2023-09-19T03:34:08;15.65;;;1.65;;
67665;SDS011;54448;51.472;-2.574;2023-09-19T03:36:34;20.75;;;2.30;;
67665;SDS011;54448;51.472;-2.574;2023-09-19T03:38:59;28.55;;;2.30;;
67665;SDS011;54448;51.472;-2.574;2023-09-19T03:41:25;23.50;;;2.17;;
67665;SDS011;54448;51.472;-2.574;2023-09-19T03:43:50;24.13;;;2.78;;
67665;SDS011;54448;51.472;-2.574;2023-09-19T03:46:16;19.75;;;2.30;;
67665;SDS011;54448;51.472;-2.574;2023-09-19T03:48:41;25.85;;;2.30;;
67665;SDS011;54448;51.472;-2.574;2023-09-19T03:51:07;25.73;;;2.20;;
67665;SDS011;54448;51.472;-2.574;2023-09-19T03:53:33;16.35;;;1.70;;
67665;SDS011;54448;51.472;-2.574;2023-09-19T03:55:58;17.00;;;1.98;;
67665;SDS011;54448;51.472;-2.574;2023-09-19T03:58:25;20.85;;;2.78;;
67665;SDS011;54448;51.472;-2.574;2023-09-19T04:00:54;24.65;;;2.40;;
67665;SDS011;54448;51.472;-2.574;2023-09-19T04:03:20;22.55;;;2.40;;
67665;SDS011;54448;51.472;-2.574;2023-09-19T04:05:46;12.68;;;1.65;;
67665;SDS011;54448;51.472;-2.574;2023-09-19T04:08:13;18.63;;;2.05;;
67665;SDS011;54448;51.472;-2.574;2023-09-19T04:10:41;21.35;;;2.25;;
67665;SDS011;54448;51.472;-2.574;2023-09-19T04:13:07;17.33;;;2.08;;
67665;SDS011;54448;51.472;-2.574;2023-09-19T04:15:33;21.13;;;2.00;;
67665;SDS011;54448;51.472;-2.574;2023-09-19T04:17:58;13.82;;;1.90;;
67665;SDS011;54448;51.472;-2.574;2023-09-19T04:20:23;9.77;;;1.30;;
67665;SDS011;54448;51.472;-2.574;2023-09-19T04:22:49;10.05;;;1.63;;
67665;SDS011;54448;51.472;-2.574;2023-09-19T04:25:15;20.95;;;1.80;;
67665;SDS011;54448;51.472;-2.574;2023-09-19T04:27:40;15.80;;;1.70;;
67665;SDS011;54448;51.472;-2.574;2023-09-19T04:30:09;15.60;;;1.90;;
67665;SDS011;54448;51.472;-2.574;2023-09-19T04:32:36;13.73;;;1.27;;
67665;SDS011;54448;51.472;-2.574;2023-09-19T04:35:05;15.80;;;2.10;;
67665;SDS011;54448;51.472;-2.574;2023-09-19T04:37:32;17.88;;;1.85;;
67665;SDS011;54448;51.472;-2.574;2023-09-19T04:39:58;22.77;;;2.05;;
67665;SDS011;54448;51.472;-2.574;2023-09-19T04:42:23;10.75;;;1.90;;
67665;SDS011;54448;51.472;-2.574;2023-09-19T04:44:50;16.30;;;1.67;;
67665;SDS011;54448;51.472;-2.574;2023-09-19T04:47:18;21.23;;;2.45;;
67665;SDS011;54448;51.472;-2.574;2023-09-19T04:49:44;9.02;;;1.08;;
67665;SDS011;54448;51.472;-2.574;2023-09-19T04:52:10;11.52;;;1.77;;
67665;SDS011;54448;51.472;-2.574;2023-09-19T04:54:35;18.58;;;2.00;;
67665;SDS011;54448;51.472;-2.574;2023-09-19T04:57:00;11.85;;;1.88;;
67665;SDS011;54448;51.472;-2.574;2023-09-19T04:59:26;15.23;;;2.22;;
67665;SDS011;54448;51.472;-2.574;2023-09-19T05:01:53;13.20;;;2.40;;
67665;SDS011;54448;51.472;-2.574;2023-09-19T05:04:18;11.85;;;1.50;;
67665;SDS011;54448;51.472;-2.574;2023-09-19T05:06:44;11.43;;;1.23;;
67665;SDS011;54448;51.472;-2.574;2023-09-19T05:09:10;12.52;;;1.23;;
67665;SDS011;54448;51.472;-2.574;2023-09-19T05:11:35;9.98;;;1.77;;
67665;SDS011;54448;51.472;-2.574;2023-09-19T05:14:03;12.93;;;1.67;;
67665;SDS011;54448;51.472;-2.574;2023-09-19T05:16:29;20.52;;;2.00;;
67665;SDS011;54448;51.472;-2.574;2023-09-19T05:18:56;5.40;;;1.10;;
67665;SDS011;54448;51.472;-2.574;2023-09-19T05:21:24;10.95;;;1.67;;
67665;SDS011;54448;51.472;-2.574;2023-09-19T05:23:53;10.25;;;1.63;;
67665;SDS011;54448;51.472;-2.574;2023-09-19T05:26:19;13.90;;;1.15;;
67665;SDS011;54448;51.472;-2.574;2023-09-19T05:28:46;6.95;;;1.13;;
67665;SDS011;54448;51.472;-2.574;2023-09-19T05:31:13;9.52;;;1.27;;
67665;SDS011;54448;51.472;-2.574;2023-09-19T05:33:39;16.83;;;1.88;;
67665;SDS011;54448;51.472;-2.574;2023-09-19T05:36:05;12.70;;;1.52;;
67665;SDS011;54448;51.472;-2.574;2023-09-19T05:38:30;16.00;;;1.50;;
67665;SDS011;54448;51.472;-2.574;2023-09-19T05:40:56;17.60;;;1.90;;
67665;SDS011;54448;51.472;-2.574;2023-09-19T05:43:21;13.35;;;1.63;;
67665;SDS011;54448;51.472;-2.574;2023-09-19T05:45:47;10.30;;;1.30;;
67665;SDS011;54448;51.472;-2.574;2023-09-19T05:48:13;14.02;;;2.45;;
67665;SDS011;54448;51.472;-2.574;2023-09-19T05:50:39;8.88;;;1.73;;
67665;SDS011;54448;51.472;-2.574;2023-09-19T05:53:05;17.98;;;2.40;;
67665;SDS011;54448;51.472;-2.574;2023-09-19T05:55:34;12.27;;;2.15;;
67665;SDS011;54448;51.472;-2.574;2023-09-19T05:58:00;20.63;;;2.22;;
67665;SDS011;54448;51.472;-2.574;2023-09-19T06:00:26;17.08;;;2.85;;
67665;SDS011;54448;51.472;-2.574;2023-09-19T06:02:57;8.13;;;1.85;;
67665;SDS011;54448;51.472;-2.574;2023-09-19T06:05:24;13.23;;;2.13;;
67665;SDS011;54448;51.472;-2.574;2023-09-19T06:07:51;12.05;;;2.60;;
67665;SDS011;54448;51.472;-2.574;2023-09-19T06:10:17;16.65;;;2.55;;
67665;SDS011;54448;51.472;-2.574;2023-09-19T06:12:43;14.55;;;2.67;;
67665;SDS011;54448;51.472;-2.574;2023-09-19T06:15:12;20.98;;;3.10;;
67665;SDS011;54448;51.472;-2.574;2023-09-19T06:17:46;16.20;;;2.42;;
67665;SDS011;54448;51.472;-2.574;2023-09-19T06:20:16;18.15;;;2.70;;
67665;SDS011;54448;51.472;-2.574;2023-09-19T06:22:43;15.77;;;4.65;;
67665;SDS011;54448;51.472;-2.574;2023-09-19T06:25:09;16.48;;;2.45;;
67665;SDS011;54448;51.472;-2.574;2023-09-19T06:27:42;18.83;;;2.67;;
67665;SDS011;54448;51.472;-2.574;2023-09-19T06:30:09;14.73;;;2.05;;
67665;SDS011;54448;51.472;-2.574;2023-09-19T06:32:42;13.13;;;2.40;;
67665;SDS011;54448;51.472;-2.574;2023-09-19T06:35:09;23.98;;;3.25;;
67665;SDS011;54448;51.472;-2.574;2023-09-19T06:37:36;11.07;;;2.33;;
67665;SDS011;54448;51.472;-2.574;2023-09-19T06:40:13;21.00;;;2.85;;
67665;SDS011;54448;51.472;-2.574;2023-09-19T06:43:12;24.80;;;3.60;;
67665;SDS011;54448;51.472;-2.574;2023-09-19T06:45:31;24.80;;;3.13;;
67665;SDS011;54448;51.472;-2.574;2023-09-19T06:47:57;17.02;;;2.75;;
67665;SDS011;54448;51.472;-2.574;2023-09-19T06:50:23;17.25;;;2.70;;
67665;SDS011;54448;51.472;-2.574;2023-09-19T06:52:49;14.85;;;2.95;;
67665;SDS011;54448;51.472;-2.574;2023-09-19T06:55:17;18.55;;;2.88;;
67665;SDS011;54448;51.472;-2.574;2023-09-19T06:57:45;18.98;;;3.53;;
67665;SDS011;54448;51.472;-2.574;2023-09-19T07:00:13;18.38;;;3.17;;
67665;SDS011;54448;51.472;-2.574;2023-09-19T07:02:57;22.73;;;2.95;;
67665;SDS011;54448;51.472;-2.574;2023-09-19T07:05:26;10.48;;;2.88;;
67665;SDS011;54448;51.472;-2.574;2023-09-19T07:07:54;23.92;;;3.42;;
67665;SDS011;54448;51.472;-2.574;2023-09-19T07:10:24;22.77;;;3.08;;
67665;SDS011;54448;51.472;-2.574;2023-09-19T07:13:00;26.60;;;4.30;;
67665;SDS011;54448;51.472;-2.574;2023-09-19T07:15:27;22.08;;;3.55;;
67665;SDS011;54448;51.472;-2.574;2023-09-19T07:17:53;31.35;;;4.43;;
67665;SDS011;54448;51.472;-2.574;2023-09-19T07:20:19;20.77;;;3.85;;
67665;SDS011;54448;51.472;-2.574;2023-09-19T07:22:45;17.10;;;2.80;;
67665;SDS011;54448;51.472;-2.574;2023-09-19T07:25:10;17.90;;;3.90;;
67665;SDS011;54448;51.472;-2.574;2023-09-19T07:27:36;31.17;;;5.65;;
67665;SDS011;54448;51.472;-2.574;2023-09-19T07:30:01;22.10;;;4.25;;
67665;SDS011;54448;51.472;-2.574;2023-09-19T07:32:26;23.17;;;6.05;;
67665;SDS011;54448;51.472;-2.574;2023-09-19T07:34:52;26.42;;;4.70;;
67665;SDS011;54448;51.472;-2.574;2023-09-19T07:37:20;27.52;;;4.35;;
67665;SDS011;54448;51.472;-2.574;2023-09-19T07:39:46;21.35;;;4.97;;
67665;SDS011;54448;51.472;-2.574;2023-09-19T07:42:11;30.88;;;4.35;;
67665;SDS011;54448;51.472;-2.574;2023-09-19T07:44:42;24.35;;;4.07;;
67665;SDS011;54448;51.472;-2.574;2023-09-19T07:47:11;31.83;;;4.35;;
67665;SDS011;54448;51.472;-2.574;2023-09-19T07:49:37;20.98;;;4.07;;
67665;SDS011;54448;51.472;-2.574;2023-09-19T07:52:02;28.58;;;4.88;;
67665;SDS011;54448;51.472;-2.574;2023-09-19T07:54:28;29.90;;;4.40;;
67665;SDS011;54448;51.472;-2.574;2023-09-19T07:56:55;29.65;;;4.43;;
67665;SDS011;54448;51.472;-2.574;2023-09-19T07:59:21;23.75;;;4.55;;
67665;SDS011;54448;51.472;-2.574;2023-09-19T08:01:46;31.48;;;5.72;;
67665;SDS011;54448;51.472;-2.574;2023-09-19T08:04:13;29.40;;;4.82;;
67665;SDS011;54448;51.472;-2.574;2023-09-19T08:06:40;22.15;;;4.70;;
67665;SDS011;54448;51.472;-2.574;2023-09-19T08:09:05;28.48;;;3.78;;
67665;SDS011;54448;51.472;-2.574;2023-09-19T08:11:34;29.15;;;4.13;;
67665;SDS011;54448;51.472;-2.574;2023-09-19T08:13:59;26.00;;;4.85;;
67665;SDS011;54448;51.472;-2.574;2023-09-19T08:16:26;45.63;;;6.03;;
67665;SDS011;54448;51.472;-2.574;2023-09-19T08:18:51;24.95;;;4.22;;
67665;SDS011;54448;51.472;-2.574;2023-09-19T08:21:19;27.13;;;5.00;;
67665;SDS011;54448;51.472;-2.574;2023-09-19T08:23:45;32.65;;;4.53;;
67665;SDS011;54448;51.472;-2.574;2023-09-19T08:26:11;17.88;;;3.97;;
67665;SDS011;54448;51.472;-2.574;2023-09-19T08:28:36;24.23;;;4.25;;
67665;SDS011;54448;51.472;-2.574;2023-09-19T08:31:06;23.25;;;4.43;;
67665;SDS011;54448;51.472;-2.574;2023-09-19T08:33:35;31.23;;;4.47;;
67665;SDS011;54448;51.472;-2.574;2023-09-19T08:36:01;22.13;;;4.00;;
67665;SDS011;54448;51.472;-2.574;2023-09-19T08:38:31;25.67;;;4.43;;
67665;SDS011;54448;51.472;-2.574;2023-09-19T08:41:00;23.75;;;4.85;;
67665;SDS011;54448;51.472;-2.574;2023-09-19T08:43:26;29.85;;;4.43;;
67665;SDS011;54448;51.472;-2.574;2023-09-19T08:45:54;37.90;;;5.90;;
67665;SDS011;54448;51.472;-2.574;2023-09-19T08:48:25;31.85;;;5.75;;
67665;SDS011;54448;51.472;-2.574;2023-09-19T08:50:56;22.67;;;4.30;;
67665;SDS011;54448;51.472;-2.574;2023-09-19T08:53:27;35.63;;;4.55;;
67665;SDS011;54448;51.472;-2.574;2023-09-19T08:56:08;27.08;;;4.30;;
67665;SDS011;54448;51.472;-2.574;2023-09-19T08:58:39;24.17;;;4.43;;
67665;SDS011;54448;51.472;-2.574;2023-09-19T09:01:13;23.63;;;4.22;;
67665;SDS011;54448;51.472;-2.574;2023-09-19T09:03:39;31.08;;;4.10;;
67665;SDS011;54448;51.472;-2.574;2023-09-19T09:06:06;25.33;;;3.47;;
67665;SDS011;54448;51.472;-2.574;2023-09-19T09:08:32;26.40;;;4.60;;
67665;SDS011;54448;51.472;-2.574;2023-09-19T09:10:58;22.58;;;3.83;;
67665;SDS011;54448;51.472;-2.574;2023-09-19T09:13:24;16.85;;;3.38;;
67665;SDS011;54448;51.472;-2.574;2023-09-19T09:15:51;30.83;;;4.35;;
67665;SDS011;54448;51.472;-2.574;2023-09-19T09:18:16;31.05;;;4.53;;
67665;SDS011;54448;51.472;-2.574;2023-09-19T09:20:43;19.45;;;3.92;;
67665;SDS011;54448;51.472;-2.574;2023-09-19T09:23:09;23.45;;;3.60;;
67665;SDS011;54448;51.472;-2.574;2023-09-19T09:25:51;20.58;;;3.38;;
67665;SDS011;54448;51.472;-2.574;2023-09-19T09:28:23;28.92;;;4.28;;
67665;SDS011;54448;51.472;-2.574;2023-09-19T09:30:50;22.45;;;3.10;;
67665;SDS011;54448;51.472;-2.574;2023-09-19T09:33:17;16.75;;;3.03;;
67665;SDS011;54448;51.472;-2.574;2023-09-19T09:35:54;29.33;;;4.97;;
67665;SDS011;54448;51.472;-2.574;2023-09-19T09:38:29;21.98;;;3.20;;
67665;SDS011;54448;51.472;-2.574;2023-09-19T09:40:59;17.92;;;3.30;;
67665;SDS011;54448;51.472;-2.574;2023-09-19T09:43:33;17.77;;;3.10;;
67665;SDS011;54448;51.472;-2.574;2023-09-19T09:49:07;9.97;;;2.67;;
67665;SDS011;54448;51.472;-2.574;2023-09-19T09:54:22;16.90;;;3.35;;
67665;SDS011;54448;51.472;-2.574;2023-09-19T09:56:55;23.58;;;3.70;;
67665;SDS011;54448;51.472;-2.574;2023-09-19T10:02:15;13.88;;;2.40;;
67665;SDS011;54448;51.472;-2.574;2023-09-19T10:04:48;24.50;;;3.00;;
67665;SDS011;54448;51.472;-2.574;2023-09-19T10:07:27;11.73;;;2.40;;
67665;SDS011;54448;51.472;-2.574;2023-09-19T10:09:57;15.75;;;3.22;;
67665;SDS011;54448;51.472;-2.574;2023-09-19T10:12:29;10.32;;;2.65;;
67665;SDS011;54448;51.472;-2.574;2023-09-19T10:14:57;19.17;;;4.13;;
67665;SDS011;54448;51.472;-2.574;2023-09-19T10:17:25;13.07;;;2.95;;
67665;SDS011;54448;51.472;-2.574;2023-09-19T10:22:30;13.43;;;2.30;;
67665;SDS011;54448;51.472;-2.574;2023-09-19T10:24:57;8.95;;;2.58;;
67665;SDS011;54448;51.472;-2.574;2023-09-19T10:27:25;7.57;;;2.90;;
67665;SDS011;54448;51.472;-2.574;2023-09-19T10:29:51;12.40;;;2.53;;
67665;SDS011;54448;51.472;-2.574;2023-09-19T10:32:21;15.43;;;3.15;;
67665;SDS011;54448;51.472;-2.574;2023-09-19T10:34:48;19.17;;;2.70;;
67665;SDS011;54448;51.472;-2.574;2023-09-19T10:37:15;9.23;;;2.30;;
67665;SDS011;54448;51.472;-2.574;2023-09-19T10:39:41;9.10;;;2.20;;
67665;SDS011;54448;51.472;-2.574;2023-09-19T10:42:11;15.85;;;2.90;;
67665;SDS011;54448;51.472;-2.574;2023-09-19T10:44:42;15.55;;;2.70;;
67665;SDS011;54448;51.472;-2.574;2023-09-19T10:47:11;7.43;;;1.70;;
67665;SDS011;54448;51.472;-2.574;2023-09-19T10:49:45;9.43;;;2.13;;
67665;SDS011;54448;51.472;-2.574;2023-09-19T10:52:12;5.28;;;1.67;;
67665;SDS011;54448;51.472;-2.574;2023-09-19T10:54:44;5.43;;;1.60;;
67665;SDS011;54448;51.472;-2.574;2023-09-19T10:57:24;8.15;;;1.63;;
67665;SDS011;54448;51.472;-2.574;2023-09-19T11:00:05;9.00;;;1.77;;
67665;SDS011;54448;51.472;-2.574;2023-09-19T11:05:36;6.55;;;1.50;;
67665;SDS011;54448;51.472;-2.574;2023-09-19T11:08:08;5.10;;;1.75;;
67665;SDS011;54448;51.472;-2.574;2023-09-19T11:11:08;4.43;;;1.23;;
67665;SDS011;54448;51.472;-2.574;2023-09-19T11:13:29;4.95;;;1.20;;
67665;SDS011;54448;51.472;-2.574;2023-09-19T11:26:50;5.15;;;1.40;;
67665;SDS011;54448;51.472;-2.574;2023-09-19T11:29:29;4.03;;;1.48;;
67665;SDS011;54448;51.472;-2.574;2023-09-19T11:31:56;5.32;;;1.85;;
67665;SDS011;54448;51.472;-2.574;2023-09-19T11:39:40;4.80;;;1.85;;
67665;SDS011;54448;51.472;-2.574;2023-09-19T11:42:44;6.70;;;1.40;;
67665;SDS011;54448;51.472;-2.574;2023-09-19T11:48:14;4.78;;;1.77;;
67665;SDS011;54448;51.472;-2.574;2023-09-19T11:50:43;5.28;;;1.30;;
67665;SDS011;54448;51.472;-2.574;2023-09-19T11:53:10;6.57;;;1.42;;
67665;SDS011;54448;51.472;-2.574;2023-09-19T11:55:39;4.72;;;1.52;;
67665;SDS011;54448;51.472;-2.574;2023-09-19T11:58:07;11.77;;;1.70;;
67665;SDS011;54448;51.472;-2.574;2023-09-19T12:00:33;4.00;;;1.58;;
67665;SDS011;54448;51.472;-2.574;2023-09-19T12:03:01;6.32;;;1.27;;
67665;SDS011;54448;51.472;-2.574;2023-09-19T12:05:34;6.05;;;1.40;;
67665;SDS011;54448;51.472;-2.574;2023-09-19T12:07:59;6.90;;;1.77;;
67665;SDS011;54448;51.472;-2.574;2023-09-19T12:10:25;12.05;;;1.88;;
67665;SDS011;54448;51.472;-2.574;2023-09-19T12:12:52;7.30;;;1.52;;
67665;SDS011;54448;51.472;-2.574;2023-09-19T12:15:24;10.13;;;2.38;;
67665;SDS011;54448;51.472;-2.574;2023-09-19T12:17:53;11.73;;;1.90;;
67665;SDS011;54448;51.472;-2.574;2023-09-19T12:20:19;6.53;;;1.88;;
67665;SDS011;54448;51.472;-2.574;2023-09-19T12:22:46;5.40;;;1.85;;
67665;SDS011;54448;51.472;-2.574;2023-09-19T12:25:12;9.52;;;2.47;;
67665;SDS011;54448;51.472;-2.574;2023-09-19T12:27:42;5.88;;;2.28;;
67665;SDS011;54448;51.472;-2.574;2023-09-19T12:30:17;10.90;;;2.33;;
67665;SDS011;54448;51.472;-2.574;2023-09-19T12:32:46;8.55;;;1.98;;
67665;SDS011;54448;51.472;-2.574;2023-09-19T12:35:26;8.25;;;2.08;;
67665;SDS011;54448;51.472;-2.574;2023-09-19T12:38:01;6.18;;;2.10;;
67665;SDS011;54448;51.472;-2.574;2023-09-19T12:40:28;6.57;;;1.70;;
67665;SDS011;54448;51.472;-2.574;2023-09-19T12:42:57;10.55;;;2.55;;
67665;SDS011;54448;51.472;-2.574;2023-09-19T12:45:24;13.07;;;2.00;;
67665;SDS011;54448;51.472;-2.574;2023-09-19T12:48:35;15.32;;;2.10;;
67665;SDS011;54448;51.472;-2.574;2023-09-19T12:51:10;9.02;;;2.35;;
67665;SDS011;54448;51.472;-2.574;2023-09-19T12:56:11;11.23;;;2.47;;
67665;SDS011;54448;51.472;-2.574;2023-09-19T12:58:55;10.13;;;2.35;;
67665;SDS011;54448;51.472;-2.574;2023-09-19T13:01:22;6.53;;;1.95;;
67665;SDS011;54448;51.472;-2.574;2023-09-19T13:04:11;10.68;;;2.03;;
67665;SDS011;54448;51.472;-2.574;2023-09-19T13:06:46;8.82;;;2.35;;
67665;SDS011;54448;51.472;-2.574;2023-09-19T13:09:14;10.55;;;1.98;;
67665;SDS011;54448;51.472;-2.574;2023-09-19T13:11:41;9.77;;;1.77;;
67665;SDS011;54448;51.472;-2.574;2023-09-19T13:14:16;20.00;;;4.68;;
67665;SDS011;54448;51.472;-2.574;2023-09-19T13:17:07;22.98;;;3.30;;
67665;SDS011;54448;51.472;-2.574;2023-09-19T13:19:44;16.50;;;2.50;;
67665;SDS011;54448;51.472;-2.574;2023-09-19T13:25:16;33.50;;;2.83;;
67665;SDS011;54448;51.472;-2.574;2023-09-19T13:27:44;29.90;;;3.30;;
67665;SDS011;54448;51.472;-2.574;2023-09-19T13:30:16;30.60;;;4.63;;
67665;SDS011;54448;51.472;-2.574;2023-09-19T13:32:42;21.23;;;3.33;;
67665;SDS011;54448;51.472;-2.574;2023-09-19T13:35:08;25.75;;;4.05;;
67665;SDS011;54448;51.472;-2.574;2023-09-19T13:37:34;19.08;;;3.40;;
67665;SDS011;54448;51.472;-2.574;2023-09-19T13:40:07;28.27;;;4.68;;
67665;SDS011;54448;51.472;-2.574;2023-09-19T13:42:33;34.22;;;4.55;;
67665;SDS011;54448;51.472;-2.574;2023-09-19T13:44:59;26.23;;;3.15;;
67665;SDS011;54448;51.472;-2.574;2023-09-19T13:47:25;18.52;;;3.88;;
67665;SDS011;54448;51.472;-2.574;2023-09-19T13:49:52;28.33;;;4.22;;
67665;SDS011;54448;51.472;-2.574;2023-09-19T13:52:18;29.58;;;3.40;;
67665;SDS011;54448;51.472;-2.574;2023-09-19T13:54:44;23.50;;;3.90;;
67665;SDS011;54448;51.472;-2.574;2023-09-19T13:57:09;22.13;;;2.90;;
67665;SDS011;54448;51.472;-2.574;2023-09-19T13:59:35;23.38;;;3.13;;
67665;SDS011;54448;51.472;-2.574;2023-09-19T14:02:00;25.38;;;2.90;;
67665;SDS011;54448;51.472;-2.574;2023-09-19T14:04:28;36.70;;;5.15;;
67665;SDS011;54448;51.472;-2.574;2023-09-19T14:06:54;17.40;;;3.22;;
67665;SDS011;54448;51.472;-2.574;2023-09-19T14:09:20;16.80;;;2.92;;
67665;SDS011;54448;51.472;-2.574;2023-09-19T14:11:46;16.05;;;2.70;;
67665;SDS011;54448;51.472;-2.574;2023-09-19T14:14:13;21.88;;;2.70;;
67665;SDS011;54448;51.472;-2.574;2023-09-19T14:16:38;22.80;;;2.67;;
67665;SDS011;54448;51.472;-2.574;2023-09-19T14:19:07;14.27;;;2.33;;
67665;SDS011;54448;51.472;-2.574;2023-09-19T14:21:33;18.88;;;3.05;;
67665;SDS011;54448;51.472;-2.574;2023-09-19T14:23:58;21.73;;;3.17;;
67665;SDS011;54448;51.472;-2.574;2023-09-19T14:26:24;12.00;;;2.47;;
67665;SDS011;54448;51.472;-2.574;2023-09-19T14:28:49;18.83;;;2.97;;
67665;SDS011;54448;51.472;-2.574;2023-09-19T14:31:15;10.98;;;1.85;;
67665;SDS011;54448;51.472;-2.574;2023-09-19T14:33:40;16.95;;;2.30;;
67665;SDS011;54448;51.472;-2.574;2023-09-19T14:36:08;11.90;;;2.10;;
67665;SDS011;54448;51.472;-2.574;2023-09-19T14:38:35;13.90;;;2.13;;
67665;SDS011;54448;51.472;-2.574;2023-09-19T14:41:03;12.50;;;1.77;;
67665;SDS011;54448;51.472;-2.574;2023-09-19T14:43:29;7.35;;;1.67;;
67665;SDS011;54448;51.472;-2.574;2023-09-19T14:45:56;7.88;;;1.70;;
67665;SDS011;54448;51.472;-2.574;2023-09-19T14:48:22;7.20;;;1.60;;
67665;SDS011;54448;51.472;-2.574;2023-09-19T14:50:51;9.95;;;1.55;;
67665;SDS011;54448;51.472;-2.574;2023-09-19T14:53:17;5.03;;;1.48;;
67665;SDS011;54448;51.472;-2.574;2023-09-19T14:55:43;9.40;;;1.45;;
67665;SDS011;54448;51.472;-2.574;2023-09-19T14:58:10;11.15;;;1.40;;
67665;SDS011;54448;51.472;-2.574;2023-09-19T15:00:37;7.65;;;2.13;;
67665;SDS011;54448;51.472;-2.574;2023-09-19T15:03:03;9.00;;;1.20;;
67665;SDS011;54448;51.472;-2.574;2023-09-19T15:05:28;6.40;;;1.60;;
67665;SDS011;54448;51.472;-2.574;2023-09-19T15:07:57;7.35;;;1.65;;
67665;SDS011;54448;51.472;-2.574;2023-09-19T15:10:23;6.97;;;1.30;;
67665;SDS011;54448;51.472;-2.574;2023-09-19T15:12:48;9.45;;;1.52;;
67665;SDS011;54448;51.472;-2.574;2023-09-19T15:15:14;6.43;;;1.60;;